Terminal Aerodrome Forecast
Issued by NWS

Home | Current Version | Previous Version | Text Only | Print | Product List | Glossary On
Versions: 1 2 3 4 5 6 7 8 9 10 11 12 13 14 15 16 17 18 19 20 21 22 23
799
FTUS43 KGRR 240609 AAA
TAFJXN
TAF AMD
KJXN 240609Z 2406/2506 08012KT 5SM -SHRA BR OVC008
     FM241700 18009KT 3SM -RA BR OVC004
     FM242200 17009KT 3SM TSRA BR OVC004CB
     FM250200 19010G17KT 4SM -SHRA BR OVC003=

USA.gov is the U.S. government's official web portal to all federal, state and local government web resources and services.